Time;durP1;ratioP1;P1;durP2;ratioP2;P2;SDS_P1;SDS_P2;PMS_P1;PMS_P2;Temp;Humidity;BMP_temperature;BMP_pressure;BME280_temperature;BME280_humidity;BME280_pressure;Samples;Min_cycle;Max_cycle;Signal;HPM_P1;HPM_P2
2021/03/22 00:00:34;;;;;;;36.83;9.88;;;3.80;97.60;;;;;;4920169;28;20057;-75
2021/03/22 00:03:00;;;;;;;32.78;9.10;;;3.80;99.00;;;;;;4984947;28;20105;-78
2021/03/22 00:05:26;;;;;;;39.25;10.00;;;3.80;99.20;;;;;;4992025;28;20061;-77
2021/03/22 00:07:53;;;;;;;35.67;9.52;;;3.80;99.10;;;;;;4919117;28;20097;-77
2021/03/22 00:10:21;;;;;;;43.65;9.98;;;3.80;99.90;;;;;;4972037;28;20105;-75
2021/03/22 00:12:47;;;;;;;45.45;9.55;;;3.80;99.90;;;;;;4935738;28;20035;-76
2021/03/22 00:15:15;;;;;;;46.17;9.77;;;3.80;99.90;;;;;;4950258;28;20530;-76
2021/03/22 00:17:41;;;;;;;51.55;9.55;;;3.90;99.90;;;;;;4972709;28;20494;-76
2021/03/22 00:20:08;;;;;;;52.75;9.93;;;3.90;99.90;;;;;;4976608;28;20056;-77
2021/03/22 00:22:34;;;;;;;38.50;9.23;;;4.00;99.90;;;;;;4983224;28;20045;-78
2021/03/22 00:25:00;;;;;;;42.83;9.32;;;4.00;99.90;;;;;;4946963;28;20038;-78
2021/03/22 00:27:26;;;;;;;38.22;9.75;;;4.10;99.90;;;;;;4938314;28;20079;-75
2021/03/22 00:29:51;;;;;;;43.03;9.30;;;4.10;99.90;;;;;;4947978;28;20505;-76
2021/03/22 00:32:17;;;;;;;35.53;9.77;;;4.10;99.90;;;;;;4958675;28;20037;-76
2021/03/22 00:34:43;;;;;;;45.03;9.90;;;4.10;99.90;;;;;;4959844;28;20370;-76
2021/03/22 00:37:08;;;;;;;53.83;9.70;;;4.10;99.90;;;;;;4968091;28;20041;-76
2021/03/22 00:39:34;;;;;;;39.58;8.73;;;4.20;99.90;;;;;;4964210;28;20075;-79
2021/03/22 00:41:59;;;;;;;45.90;9.23;;;4.30;99.90;;;;;;4934872;28;20392;-76
2021/03/22 00:44:25;;;;;;;50.70;9.98;;;4.30;99.70;;;;;;4935875;28;20564;-76
2021/03/22 00:46:51;;;;;;;43.47;9.13;;;4.30;99.30;;;;;;4965746;28;21582;-78
2021/03/22 00:49:17;;;;;;;46.83;9.45;;;4.40;99.50;;;;;;4967859;28;20068;-76
2021/03/22 00:51:43;;;;;;;60.35;9.77;;;4.40;99.50;;;;;;4930073;28;20096;-77
2021/03/22 00:54:08;;;;;;;49.28;8.57;;;4.30;99.70;;;;;;4948100;28;20041;-76
2021/03/22 00:56:34;;;;;;;42.70;7.47;;;4.40;99.60;;;;;;4943115;28;20170;-77
2021/03/22 00:58:59;;;;;;;36.13;7.80;;;4.40;99.80;;;;;;4937963;28;20049;-77
2021/03/22 01:01:25;;;;;;;38.97;7.72;;;4.40;99.90;;;;;;4961546;28;20538;-78
2021/03/22 01:03:50;;;;;;;35.13;7.88;;;4.40;99.50;;;;;;4959164;28;20725;-77
2021/03/22 01:06:16;;;;;;;43.05;7.90;;;4.40;99.30;;;;;;4961467;28;20042;-76
2021/03/22 01:08:42;;;;;;;46.75;9.32;;;4.40;99.00;;;;;;4941086;28;20200;-74
2021/03/22 01:11:08;;;;;;;36.65;8.20;;;4.50;98.90;;;;;;4951695;28;20138;-75
2021/03/22 01:13:36;;;;;;;49.10;7.90;;;4.50;98.90;;;;;;4936355;28;20510;-77
2021/03/22 01:16:05;;;;;;;53.53;9.60;;;4.50;98.90;;;;;;4934045;28;20054;-75
2021/03/22 01:18:34;;;;;;;41.80;7.80;;;4.50;98.60;;;;;;4943935;28;20688;-75
2021/03/22 01:21:29;;;;;;;38.92;8.27;;;4.50;98.40;;;;;;4945964;28;20140;-76
2021/03/22 01:23:54;;;;;;;42.00;7.53;;;4.50;98.60;;;;;;4931423;28;20206;-74
2021/03/22 01:26:24;;;;;;;40.95;7.85;;;4.50;98.70;;;;;;4946896;28;20121;-78
2021/03/22 01:28:50;;;;;;;47.80;8.13;;;4.50;98.40;;;;;;4927296;28;20066;-75
2021/03/22 01:31:16;;;;;;;40.97;8.00;;;4.50;98.50;;;;;;4975436;28;20065;-75
2021/03/22 01:33:49;;;;;;;38.78;7.20;;;4.50;98.50;;;;;;4958645;28;20461;-75
2021/03/22 01:36:23;;;;;;;40.25;7.80;;;4.50;98.70;;;;;;4926880;28;20522;-77
2021/03/22 01:38:49;;;;;;;29.92;7.22;;;4.50;97.80;;;;;;4947081;28;20118;-76
2021/03/22 01:41:53;;;;;;;45.00;7.88;;;4.50;97.70;;;;;;4949217;28;20088;-76
2021/03/22 01:44:21;;;;;;;31.58;7.50;;;4.50;98.00;;;;;;4945440;28;20046;-81
2021/03/22 01:47:09;;;;;;;54.10;7.57;;;4.50;97.80;;;;;;4975480;28;20037;-76
2021/03/22 01:50:01;;;;;;;38.42;7.18;;;4.50;97.50;;;;;;5002728;28;20053;-76
2021/03/22 01:52:28;;;;;;;39.03;7.00;;;4.50;97.30;;;;;;4956925;28;20038;-79
2021/03/22 01:54:54;;;;;;;38.00;7.13;;;4.50;97.40;;;;;;4997961;28;20030;-75
2021/03/22 01:57:32;;;;;;;44.28;9.10;;;4.50;97.50;;;;;;4972707;28;20076;-76
2021/03/22 02:00:12;;;;;;;32.88;8.07;;;4.50;97.40;;;;;;4944530;28;20129;-75
2021/03/22 02:02:40;;;;;;;43.88;7.47;;;4.50;97.30;;;;;;4951107;28;20042;-75
2021/03/22 02:05:08;;;;;;;42.42;6.82;;;4.50;97.40;;;;;;4969300;28;20037;-75
2021/03/22 02:07:35;;;;;;;48.88;8.20;;;4.50;97.40;;;;;;4942980;28;20042;-76
2021/03/22 02:10:02;;;;;;;42.38;7.28;;;4.40;97.90;;;;;;4942676;28;20092;-75
2021/03/22 02:12:29;;;;;;;47.83;6.45;;;4.40;97.40;;;;;;4928992;28;20041;-77
2021/03/22 02:14:55;;;;;;;42.60;7.72;;;4.40;97.60;;;;;;4953532;28;20117;-79
2021/03/22 02:17:47;;;;;;;30.45;6.25;;;4.40;97.60;;;;;;4961066;28;20164;-75
2021/03/22 02:20:18;;;;;;;36.45;6.82;;;4.40;97.70;;;;;;4941247;28;20495;-77
2021/03/22 02:23:11;;;;;;;48.22;6.45;;;4.40;97.80;;;;;;4980809;28;20038;-79
2021/03/22 02:25:56;;;;;;;42.85;7.53;;;4.40;97.90;;;;;;4939295;28;20041;-76
2021/03/22 02:28:29;;;;;;;47.50;7.90;;;4.40;97.80;;;;;;4944221;28;20133;-78
2021/03/22 02:31:45;;;;;;;44.13;6.47;;;4.40;97.70;;;;;;4957042;28;20124;-77
2021/03/22 02:34:22;;;;;;;35.92;6.45;;;4.30;97.80;;;;;;4946714;28;20554;-76
2021/03/22 02:36:56;;;;;;;39.67;6.82;;;4.30;97.90;;;;;;4952543;28;20052;-77
2021/03/22 02:39:22;;;;;;;40.97;6.93;;;4.30;97.80;;;;;;4970163;28;20041;-76
2021/03/22 02:41:53;;;;;;;37.15;7.63;;;4.30;98.30;;;;;;4992994;28;20191;-74
2021/03/22 02:44:28;;;;;;;32.97;6.03;;;4.30;98.40;;;;;;4939243;28;20047;-77
2021/03/22 02:47:21;;;;;;;35.85;5.78;;;4.30;98.10;;;;;;4953152;28;20129;-74
2021/03/22 02:49:48;;;;;;;37.80;6.65;;;4.30;98.10;;;;;;4927125;28;20038;-77
2021/03/22 02:52:43;;;;;;;50.92;7.75;;;4.30;98.10;;;;;;4965831;28;20033;-75
2021/03/22 02:55:27;;;;;;;;;;;4.20;98.30;;;;;;4963470;28;20050;-75
2021/03/22 02:57:55;;;;;;;39.03;5.85;;;4.20;98.40;;;;;;4972994;28;19921;-77
2021/03/22 03:00:34;;;;;;;38.58;5.72;;;4.20;98.00;;;;;;4963709;28;20049;-78
2021/03/22 03:03:04;;;;;;;42.42;6.07;;;4.20;98.20;;;;;;4991644;28;20026;-75
2021/03/22 03:05:31;;;;;;;37.05;5.07;;;4.20;98.50;;;;;;4991473;28;20031;-75
2021/03/22 03:07:59;;;;;;;41.75;6.03;;;4.20;97.90;;;;;;4993901;28;20073;-75
2021/03/22 03:10:26;;;;;;;46.58;6.68;;;4.20;97.80;;;;;;4992216;28;20100;-76
2021/03/22 03:12:51;;;;;;;38.25;6.70;;;4.20;97.70;;;;;;4991986;28;20380;-78
2021/03/22 03:15:19;;;;;;;39.92;5.90;;;4.20;97.80;;;;;;4993600;28;20172;-76
2021/03/22 03:17:45;;;;;;;45.67;6.95;;;4.20;97.30;;;;;;4992948;28;20034;-76
2021/03/22 03:20:14;;;;;;;36.17;5.80;;;4.20;96.90;;;;;;4989979;28;20034;-76
2021/03/22 03:22:41;;;;;;;35.20;5.97;;;4.20;96.90;;;;;;4991156;28;20041;-76
2021/03/22 03:25:09;;;;;;;32.28;5.78;;;4.20;96.80;;;;;;4992705;28;20041;-75
2021/03/22 03:27:35;;;;;;;44.50;6.45;;;4.20;97.30;;;;;;4994983;28;20045;-76
2021/03/22 03:30:02;;;;;;;34.05;5.60;;;4.20;96.80;;;;;;4994576;28;20072;-77
2021/03/22 03:32:28;;;;;;;45.55;5.60;;;4.20;96.40;;;;;;4995114;28;20038;-77
2021/03/22 03:34:53;;;;;;;45.00;5.35;;;4.20;96.10;;;;;;4994211;28;20556;-76
2021/03/22 03:37:19;;;;;;;40.55;4.18;;;4.20;95.90;;;;;;4994209;28;20091;-76
2021/03/22 03:39:44;;;;;;;33.97;5.68;;;4.20;95.90;;;;;;4998303;28;20464;-76
2021/03/22 03:42:12;;;;;;;43.00;5.93;;;4.20;96.30;;;;;;4993314;28;20038;-78
2021/03/22 03:44:39;;;;;;;32.28;4.82;;;4.20;95.90;;;;;;4993419;28;20073;-75
2021/03/22 03:47:05;;;;;;;42.08;5.30;;;4.20;96.30;;;;;;4994585;28;20031;-79
2021/03/22 03:49:31;;;;;;;31.30;5.47;;;4.20;96.60;;;;;;4996500;28;20101;-77
2021/03/22 03:51:57;;;;;;;32.17;5.25;;;4.20;96.80;;;;;;4992843;28;20053;-77
2021/03/22 03:54:22;;;;;;;34.90;4.55;;;4.20;96.80;;;;;;4994240;28;20041;-79
2021/03/22 03:56:48;;;;;;;34.47;6.43;;;4.10;96.50;;;;;;4995017;28;20123;-76
2021/03/22 03:59:14;;;;;;;41.90;5.00;;;4.10;96.30;;;;;;4997142;28;20065;-79
2021/03/22 04:01:39;;;;;;;32.67;5.10;;;4.10;96.60;;;;;;4995398;28;20427;-77
2021/03/22 04:04:05;;;;;;;38.75;5.65;;;4.20;96.90;;;;;;5003249;28;20038;-77
2021/03/22 04:06:33;;;;;;;31.88;5.47;;;4.10;97.00;;;;;;4996596;28;20041;-77
2021/03/22 04:09:03;;;;;;;39.00;5.72;;;4.10;97.00;;;;;;4995882;28;20034;-76
2021/03/22 04:11:40;;;;;;;47.95;7.22;;;4.10;97.40;;;;;;4993676;28;20125;-76
2021/03/22 04:14:08;;;;;;;37.63;6.40;;;4.10;96.90;;;;;;4992682;28;20034;-77
2021/03/22 04:16:34;;;;;;;35.92;5.95;;;4.10;97.20;;;;;;4992729;28;20051;-78
2021/03/22 04:19:01;;;;;;;35.60;6.38;;;4.10;97.00;;;;;;5000888;28;20039;-76
2021/03/22 04:21:30;;;;;;;39.83;6.90;;;4.10;96.70;;;;;;4991793;28;20045;-77
2021/03/22 04:23:58;;;;;;;32.55;4.28;;;4.10;96.60;;;;;;4991321;28;20030;-77
2021/03/22 04:26:23;;;;;;;45.80;4.80;;;4.10;96.10;;;;;;4991013;28;20100;-77
2021/03/22 04:28:49;;;;;;;36.45;5.07;;;4.10;94.90;;;;;;4981741;28;20042;-77
2021/03/22 04:31:17;;;;;;;30.98;5.18;;;4.10;94.70;;;;;;4996675;28;20426;-76
2021/03/22 04:33:43;;;;;;;39.92;4.97;;;4.10;94.60;;;;;;4990957;28;20056;-77
2021/03/22 04:36:09;;;;;;;34.40;4.72;;;4.10;94.60;;;;;;4993131;28;20331;-75
2021/03/22 04:38:34;;;;;;;45.50;5.90;;;4.20;95.10;;;;;;4993154;28;20053;-77
2021/03/22 04:41:00;;;;;;;33.22;4.57;;;4.20;95.20;;;;;;4990573;28;20042;-80
2021/03/22 04:43:26;;;;;;;35.60;4.85;;;4.20;95.40;;;;;;4989515;28;20066;-79
2021/03/22 04:45:52;;;;;;;47.53;5.95;;;4.10;95.30;;;;;;4990148;28;20265;-79
2021/03/22 04:48:18;;;;;;;37.45;4.88;;;4.10;95.70;;;;;;4997518;28;21737;-77
2021/03/22 04:50:44;;;;;;;27.92;5.30;;;4.20;95.80;;;;;;4988760;28;20037;-76
2021/03/22 04:53:10;;;;;;;29.45;4.90;;;4.10;95.90;;;;;;4991713;28;20046;-76
2021/03/22 04:55:36;;;;;;;20.50;4.68;;;4.10;96.00;;;;;;4993288;28;20031;-76
2021/03/22 04:58:02;;;;;;;45.22;5.30;;;4.10;96.00;;;;;;4989875;28;20053;-75
2021/03/22 05:00:37;;;;;;;32.55;6.05;;;4.10;96.30;;;;;;4992299;28;20034;-75
2021/03/22 05:03:03;;;;;;;26.02;4.78;;;4.10;95.80;;;;;;4991034;28;20038;-78
2021/03/22 05:05:28;;;;;;;49.53;5.82;;;4.10;95.90;;;;;;4988186;28;20100;-79
2021/03/22 05:07:54;;;;;;;50.15;6.38;;;4.10;95.70;;;;;;4990128;28;20069;-78
2021/03/22 05:10:33;;;;;;;41.03;5.10;;;4.10;95.50;;;;;;4989023;28;20042;-76
2021/03/22 05:12:58;;;;;;;42.85;4.20;;;4.10;95.40;;;;;;4989552;28;20072;-76
2021/03/22 05:15:24;;;;;;;28.23;4.82;;;4.10;95.60;;;;;;4986902;28;20439;-76
2021/03/22 05:17:50;;;;;;;30.40;4.90;;;4.10;95.50;;;;;;4972618;28;553828;-76
2021/03/22 05:20:21;;;;;;;36.67;4.75;;;4.10;94.70;;;;;;4988487;28;20034;-76
2021/03/22 05:22:46;;;;;;;23.42;4.47;;;4.10;94.20;;;;;;4994213;28;20053;-76
2021/03/22 05:25:13;;;;;;;31.17;4.35;;;4.10;94.00;;;;;;4991694;28;20713;-76
2021/03/22 05:27:38;;;;;;;23.70;3.55;;;4.10;93.50;;;;;;4988609;28;20053;-78
2021/03/22 05:30:07;;;;;;;41.25;4.18;;;4.20;93.40;;;;;;4990781;28;20053;-77
2021/03/22 05:32:35;;;;;;;32.50;4.03;;;4.20;92.70;;;;;;4988029;28;20050;-76
2021/03/22 05:35:03;;;;;;;27.60;4.30;;;4.10;92.40;;;;;;4990837;28;20069;-75
2021/03/22 05:37:28;;;;;;;21.65;4.03;;;4.10;92.60;;;;;;4992439;28;20034;-76
2021/03/22 05:39:54;;;;;;;27.77;4.15;;;4.20;92.30;;;;;;4988904;28;20041;-78
2021/03/22 05:42:46;;;;;;;37.33;5.20;;;4.20;92.10;;;;;;4989202;28;20026;-79
2021/03/22 05:45:43;;;;;;;27.08;4.55;;;4.20;92.00;;;;;;4990446;28;20070;-76
2021/03/22 05:48:29;;;;;;;22.70;3.42;;;4.20;91.80;;;;;;5006470;28;20031;-76
2021/03/22 05:51:21;;;;;;;37.83;4.20;;;4.20;91.30;;;;;;4992156;28;20132;-77
2021/03/22 05:53:59;;;;;;;21.33;3.30;;;4.20;91.60;;;;;;4991464;28;20038;-76
2021/03/22 05:56:56;;;;;;;20.00;3.90;;;4.20;91.60;;;;;;4987203;28;20490;-75
2021/03/22 05:59:42;;;;;;;36.28;5.63;;;4.20;91.70;;;;;;4992615;28;20130;-76
2021/03/22 06:02:16;;;;;;;24.65;4.47;;;4.30;92.10;;;;;;4992213;28;20060;-77
2021/03/22 06:04:42;;;;;;;;;;;4.20;92.00;;;;;;4988058;28;20050;-76
2021/03/22 06:07:14;;;;;;;36.60;4.80;;;4.30;92.20;;;;;;4992523;28;20021;-76
2021/03/22 06:10:02;;;;;;;29.42;4.43;;;4.20;92.80;;;;;;4990467;28;20048;-76
2021/03/22 06:12:28;;;;;;;41.33;5.13;;;4.20;93.40;;;;;;4992084;28;20491;-76
2021/03/22 06:15:09;;;;;;;37.08;5.10;;;4.20;93.70;;;;;;5002689;28;20082;-76
2021/03/22 06:17:41;;;;;;;40.28;6.20;;;4.20;93.90;;;;;;4991820;28;20042;-76
2021/03/22 06:20:21;;;;;;;26.80;5.20;;;4.20;94.50;;;;;;4993445;28;20084;-78
2021/03/22 06:22:47;;;;;;;43.42;6.30;;;4.20;94.70;;;;;;4993078;28;20570;-79
2021/03/22 06:25:27;;;;;;;31.40;5.55;;;4.20;95.10;;;;;;4992915;28;20437;-80
2021/03/22 06:27:54;;;;;;;35.55;5.57;;;4.20;95.20;;;;;;4996789;28;20046;-76
2021/03/22 06:30:23;;;;;;;33.08;4.82;;;4.20;95.30;;;;;;4994260;28;20037;-77
2021/03/22 06:32:53;;;;;;;32.30;5.30;;;4.20;95.70;;;;;;4991031;28;20042;-77
2021/03/22 06:35:34;;;;;;;29.23;4.95;;;4.10;95.70;;;;;;4993882;28;20522;-76
2021/03/22 06:38:01;;;;;;;41.67;5.65;;;4.10;95.90;;;;;;4998251;28;20031;-78
2021/03/22 06:40:26;;;;;;;34.40;5.20;;;4.20;96.40;;;;;;4992207;28;20500;-77
2021/03/22 06:43:07;;;;;;;45.25;6.65;;;4.20;96.20;;;;;;4993622;28;20026;-80
2021/03/22 06:45:37;;;;;;;26.33;5.05;;;4.20;96.40;;;;;;4986956;28;20390;-78
2021/03/22 06:48:22;;;;;;;27.77;5.25;;;4.30;96.30;;;;;;5002575;28;20462;-75
2021/03/22 06:51:01;;;;;;;50.35;5.13;;;4.20;96.00;;;;;;4995332;28;20604;-78
2021/03/22 06:53:43;;;;;;;31.48;5.22;;;4.30;95.90;;;;;;4988161;28;20062;-78
2021/03/22 06:56:29;;;;;;;44.00;6.22;;;4.30;95.80;;;;;;4991576;28;20088;-78
2021/03/22 06:59:19;;;;;;;28.38;4.45;;;4.40;96.00;;;;;;4988901;28;20103;-77
2021/03/22 07:01:50;;;;;;;33.00;5.15;;;4.40;95.60;;;;;;4994418;28;20070;-80
2021/03/22 07:04:29;;;;;;;49.25;6.05;;;4.40;95.70;;;;;;5010765;28;20137;-77
2021/03/22 07:07:03;;;;;;;53.63;5.68;;;4.40;95.30;;;;;;4997235;28;20114;-78
2021/03/22 07:09:35;;;;;;;52.30;5.95;;;4.30;95.50;;;;;;4995736;28;20594;-76
2021/03/22 07:12:01;;;;;;;23.80;4.95;;;4.30;95.50;;;;;;4992655;28;20709;-79
2021/03/22 07:14:29;;;;;;;25.25;4.50;;;4.30;95.50;;;;;;4995521;28;20037;-77
2021/03/22 07:17:06;;;;;;;41.15;5.07;;;4.30;95.90;;;;;;4997748;28;20042;-76
2021/03/22 07:19:33;;;;;;;42.28;5.15;;;4.30;95.60;;;;;;4994394;28;20073;-75
2021/03/22 07:22:03;;;;;;;32.15;5.13;;;4.40;95.60;;;;;;4996907;28;20554;-77
2021/03/22 07:24:43;;;;;;;35.05;5.35;;;4.40;95.70;;;;;;4994537;28;20049;-77
2021/03/22 07:27:18;;;;;;;41.08;5.32;;;4.40;95.40;;;;;;4996288;28;20109;-79
2021/03/22 07:29:44;;;;;;;30.67;5.28;;;4.40;95.10;;;;;;4996659;28;20140;-78
2021/03/22 07:32:25;;;;;;;34.58;5.45;;;4.50;95.00;;;;;;4998662;28;20153;-82
2021/03/22 07:35:14;;;;;;;47.00;5.15;;;4.50;95.00;;;;;;4997816;28;20046;-79
2021/03/22 07:37:50;;;;;;;39.00;5.70;;;4.60;94.60;;;;;;4995031;28;20552;-77
2021/03/22 07:40:34;;;;;;;44.47;5.13;;;4.60;94.50;;;;;;4984108;28;20033;-81
2021/03/22 07:43:16;;;;;;;46.03;5.00;;;4.80;94.30;;;;;;4999918;28;20042;-78
2021/03/22 07:46:12;;;;;;;34.08;4.43;;;4.90;94.30;;;;;;4998798;28;20041;-79
2021/03/22 07:49:03;;;;;;;36.70;4.93;;;4.80;93.80;;;;;;4995449;28;20088;-81
2021/03/22 07:51:58;;;;;;;31.52;4.60;;;4.80;93.00;;;;;;4995642;28;20507;-76
2021/03/22 07:54:46;;;;;;;36.03;4.70;;;4.80;92.60;;;;;;4999141;28;20691;-77
2021/03/22 07:57:30;;;;;;;34.88;4.28;;;4.70;92.20;;;;;;4994001;28;20380;-78
2021/03/22 08:00:15;;;;;;;22.70;4.55;;;4.60;92.20;;;;;;4996911;28;20510;-80
2021/03/22 08:02:46;;;;;;;;;;;4.80;92.40;;;;;;4994608;28;20046;-78
2021/03/22 08:05:35;;;;;;;22.88;4.05;;;4.80;92.30;;;;;;4994911;28;19918;-79
2021/03/22 08:08:58;;;;;;;29.35;4.13;;;4.90;91.40;;;;;;4997908;28;20041;-79
2021/03/22 08:11:42;;;;;;;30.73;3.63;;;4.90;91.60;;;;;;5032527;28;20045;-77
2021/03/22 08:14:17;;;;;;;32.95;4.38;;;5.00;91.50;;;;;;5019306;28;20236;-77
2021/03/22 08:17:07;;;;;;;31.52;4.28;;;5.00;90.50;;;;;;5002247;28;20038;-80
2021/03/22 08:19:58;;;;;;;22.88;4.00;;;5.10;90.00;;;;;;4995078;28;20034;-81
2021/03/22 08:22:42;;;;;;;26.42;2.42;;;5.10;89.40;;;;;;4992787;28;20026;-77
2021/03/22 08:25:19;;;;;;;23.63;3.55;;;5.30;89.80;;;;;;4994813;28;20038;-78
2021/03/22 08:27:56;;;;;;;19.45;3.65;;;5.40;87.80;;;;;;4993268;28;20042;-77
2021/03/22 08:30:51;;;;;;;10.52;2.53;;;5.40;86.50;;;;;;5001046;28;20088;-78
2021/03/22 08:33:30;;;;;;;18.27;2.92;;;5.40;85.00;;;;;;5000128;28;20112;-77
2021/03/22 08:36:17;;;;;;;33.35;4.70;;;5.40;86.00;;;;;;4994646;28;20038;-77
2021/03/22 08:38:48;;;;;;;22.60;3.08;;;5.50;85.00;;;;;;4995041;28;20034;-76
2021/03/22 08:41:29;;;;;;;28.90;3.80;;;5.50;84.50;;;;;;4995011;28;20096;-80
2021/03/22 08:44:04;;;;;;;21.90;3.58;;;5.70;85.70;;;;;;4993975;28;20038;-77
2021/03/22 08:46:41;;;;;;;27.50;3.03;;;5.60;84.00;;;;;;4992989;28;20144;-78
2021/03/22 08:49:44;;;;;;;27.55;3.47;;;5.70;84.10;;;;;;4995257;28;20521;-77
2021/03/22 08:52:25;;;;;;;24.48;3.40;;;5.70;84.70;;;;;;4993474;28;20060;-80
2021/03/22 08:55:07;;;;;;;24.50;2.92;;;5.70;83.60;;;;;;4991914;28;20065;-78
2021/03/22 08:57:45;;;;;;;24.95;3.60;;;5.90;83.40;;;;;;4993068;28;20034;-80
2021/03/22 09:00:34;;;;;;;16.75;3.95;;;5.80;83.10;;;;;;4992819;28;20063;-77
2021/03/22 09:03:15;;;;;;;26.98;3.90;;;6.00;82.50;;;;;;4991907;28;20069;-79
2021/03/22 09:06:02;;;;;;;19.13;4.35;;;5.90;81.70;;;;;;4998598;28;20142;-77
2021/03/22 09:08:30;;;;;;;18.23;4.53;;;5.70;80.70;;;;;;4994311;28;20092;-77
2021/03/22 09:11:12;;;;;;;21.27;3.00;;;5.60;80.60;;;;;;4992122;28;20045;-78
2021/03/22 09:13:38;;;;;;;23.20;3.15;;;5.70;82.30;;;;;;4994323;28;20041;-79
2021/03/22 09:16:24;;;;;;;19.95;3.03;;;5.70;82.00;;;;;;4991752;28;20669;-78
2021/03/22 09:19:29;;;;;;;13.77;2.60;;;5.60;81.70;;;;;;4991264;28;20494;-79
2021/03/22 09:21:54;;;;;;;21.10;3.13;;;5.60;81.80;;;;;;4996462;28;20046;-76
2021/03/22 09:24:39;;;;;;;12.20;2.65;;;5.60;82.40;;;;;;4995172;28;20042;-76
2021/03/22 09:27:29;;;;;;;21.77;4.47;;;5.50;82.40;;;;;;4999622;28;20137;-76
2021/03/22 09:30:00;;;;;;;16.75;2.80;;;5.50;83.20;;;;;;4991122;28;20104;-79
2021/03/22 09:32:32;;;;;;;16.75;3.85;;;5.60;83.20;;;;;;4992868;28;20031;-77
2021/03/22 09:35:16;;;;;;;18.23;2.95;;;5.50;82.60;;;;;;5001087;28;20034;-77
2021/03/22 09:37:46;;;;;;;;;;;5.70;83.00;;;;;;4986384;28;20534;-77
2021/03/22 09:40:21;;;;;;;16.67;2.47;;;5.80;82.90;;;;;;4979622;28;19996;-78
2021/03/22 09:43:09;;;;;;;11.25;3.10;;;6.00;81.70;;;;;;4993537;28;20034;-76
2021/03/22 09:46:01;;;;;;;17.88;2.50;;;6.20;80.00;;;;;;4984200;28;20045;-78
2021/03/22 09:48:33;;;;;;;35.30;3.63;;;6.30;80.70;;;;;;5013585;28;20053;-78
2021/03/22 09:51:02;;;;;;;18.23;2.33;;;6.40;78.60;;;;;;5005273;28;20045;-79
2021/03/22 09:53:50;;;;;;;22.20;3.20;;;6.60;77.60;;;;;;4999087;28;20050;-79
2021/03/22 09:56:43;;;;;;;16.58;2.75;;;6.30;78.40;;;;;;5001838;28;20034;-77
2021/03/22 09:59:23;;;;;;;19.83;3.35;;;6.60;78.90;;;;;;4993899;28;20069;-76
2021/03/22 10:01:50;;;;;;;15.18;2.50;;;6.50;76.50;;;;;;4996429;28;20045;-77
2021/03/22 10:04:31;;;;;;;18.23;2.78;;;6.60;75.00;;;;;;4992513;28;20045;-77
2021/03/22 10:07:20;;;;;;;19.88;3.05;;;6.70;74.40;;;;;;4995810;28;20026;-76
2021/03/22 10:09:50;;;;;;;14.75;2.78;;;7.00;73.80;;;;;;5004042;28;20034;-76
2021/03/22 10:12:22;;;;;;;12.70;2.80;;;6.80;73.20;;;;;;4971656;28;20031;-77
2021/03/22 10:15:19;;;;;;;15.68;2.17;;;7.00;73.10;;;;;;4969762;28;20341;-77
2021/03/22 10:17:52;;;;;;;17.70;3.35;;;6.70;73.50;;;;;;4965741;28;20523;-78
2021/03/22 10:20:22;;;;;;;24.00;3.35;;;6.70;75.10;;;;;;4969268;28;20573;-81
2021/03/22 10:22:50;;;;;;;15.27;2.78;;;6.80;76.00;;;;;;4970407;28;20030;-77
2021/03/22 10:25:25;;;;;;;16.02;3.10;;;6.30;74.30;;;;;;4969694;28;20582;-77
2021/03/22 10:28:00;;;;;;;19.10;3.80;;;6.20;77.00;;;;;;4985620;28;20455;-80
2021/03/22 10:30:25;;;;;;;11.02;2.47;;;6.20;77.50;;;;;;4996763;28;20030;-77
2021/03/22 10:32:58;;;;;;;20.55;2.60;;;5.90;77.40;;;;;;4994849;28;20108;-78
2021/03/22 10:35:28;;;;;;;15.68;3.95;;;5.90;78.50;;;;;;4992773;28;20069;-77
2021/03/22 10:37:57;;;;;;;14.73;2.63;;;6.00;80.20;;;;;;4992249;28;20140;-76
2021/03/22 10:40:25;;;;;;;21.65;3.75;;;5.90;80.50;;;;;;4991367;28;20401;-78
2021/03/22 10:42:54;;;;;;;20.38;2.95;;;5.70;80.90;;;;;;4995175;28;20038;-79
2021/03/22 10:45:41;;;;;;;14.75;3.22;;;5.70;81.80;;;;;;5004201;28;20049;-80
2021/03/22 10:48:23;;;;;;;21.00;3.35;;;5.80;84.30;;;;;;4993013;28;20677;-79
2021/03/22 10:51:02;;;;;;;14.45;2.63;;;5.80;82.60;;;;;;4996591;28;20038;-77
2021/03/22 10:53:28;;;;;;;15.00;2.47;;;5.70;83.00;;;;;;4996960;28;20049;-77
2021/03/22 10:55:54;;;;;;;19.33;2.70;;;5.70;83.00;;;;;;4995428;28;20533;-80
2021/03/22 10:58:33;;;;;;;20.38;3.05;;;5.90;83.50;;;;;;4997085;28;20030;-81
2021/03/22 11:01:01;;;;;;;13.20;3.15;;;5.80;81.90;;;;;;4996792;28;20434;-78
2021/03/22 11:03:29;;;;;;;14.63;2.65;;;5.90;82.30;;;;;;4997481;28;20038;-78
2021/03/22 11:05:55;;;;;;;19.92;2.95;;;5.90;82.70;;;;;;4995763;28;20129;-78
2021/03/22 11:08:30;;;;;;;16.08;2.90;;;6.10;83.30;;;;;;5001052;28;20042;-77
2021/03/22 11:11:01;;;;;;;16.70;2.63;;;6.00;81.70;;;;;;4996379;28;20081;-77
2021/03/22 11:13:29;;;;;;;21.00;3.08;;;5.90;81.30;;;;;;4996232;28;20034;-78
2021/03/22 11:15:55;;;;;;;26.42;3.08;;;6.00;82.10;;;;;;4998002;28;20469;-78
2021/03/22 11:18:21;;;;;;;14.27;2.70;;;6.20;81.10;;;;;;4995272;28;20133;-79
2021/03/22 11:20:51;;;;;;;14.30;2.03;;;6.30;80.00;;;;;;4996011;28;20062;-78
2021/03/22 11:23:40;;;;;;;11.52;2.42;;;6.40;77.60;;;;;;4993654;28;20494;-78
2021/03/22 11:26:11;;;;;;;17.50;2.03;;;6.20;76.60;;;;;;4993191;28;20053;-78
2021/03/22 11:28:38;;;;;;;13.65;2.50;;;6.10;76.30;;;;;;4995341;28;20698;-79
2021/03/22 11:31:07;;;;;;;15.20;2.45;;;6.10;76.00;;;;;;4998735;28;20029;-78
2021/03/22 11:33:43;;;;;;;12.63;2.20;;;6.20;75.90;;;;;;5008372;28;20103;-80
2021/03/22 11:36:20;;;;;;;14.73;2.50;;;6.30;75.20;;;;;;4992717;28;20149;-81
2021/03/22 11:38:53;;;;;;;17.77;3.05;;;6.40;75.00;;;;;;4992943;28;20522;-78
2021/03/22 11:41:43;;;;;;;14.65;2.55;;;6.40;75.10;;;;;;4994699;28;20042;-77
2021/03/22 11:44:20;;;;;;;11.60;1.90;;;6.30;75.00;;;;;;4991413;28;20035;-77
2021/03/22 11:46:50;;;;;;;13.60;2.05;;;6.50;74.90;;;;;;4987109;28;20061;-78
2021/03/22 11:49:42;;;;;;;14.82;2.40;;;6.60;74.40;;;;;;4991834;28;20096;-77
2021/03/22 11:52:21;;;;;;;12.55;2.53;;;6.70;73.70;;;;;;4991649;28;20105;-81
2021/03/22 11:54:54;;;;;;;16.42;2.65;;;6.80;72.90;;;;;;4989081;28;20034;-78
2021/03/22 11:57:30;;;;;;;15.18;2.63;;;6.90;72.20;;;;;;4988740;28;20065;-78
2021/03/22 12:00:04;;;;;;;12.70;2.25;;;7.20;72.80;;;;;;4989649;28;20045;-79
2021/03/22 12:02:51;;;;;;;14.57;2.40;;;7.30;70.20;;;;;;4999715;28;20112;-78
2021/03/22 12:05:30;;;;;;;16.15;2.58;;;7.30;70.20;;;;;;4991343;28;20383;-78
2021/03/22 12:07:57;;;;;;;11.35;2.50;;;7.30;69.50;;;;;;4988901;28;20038;-79
2021/03/22 12:10:27;;;;;;;20.00;3.55;;;7.00;69.90;;;;;;4989838;28;20147;-78
2021/03/22 12:13:00;;;;;;;14.38;2.55;;;7.10;70.80;;;;;;4990172;28;20129;-78
2021/03/22 12:15:27;;;;;;;12.00;2.42;;;7.10;70.20;;;;;;4991627;28;20145;-79
2021/03/22 12:17:58;;;;;;;15.25;3.28;;;7.10;70.20;;;;;;4993491;28;20633;-79
2021/03/22 12:20:27;;;;;;;17.05;3.75;;;7.20;71.00;;;;;;4995322;28;20543;-79
2021/03/22 12:22:54;;;;;;;13.35;3.03;;;7.10;70.80;;;;;;4993325;28;20188;-78
2021/03/22 12:25:23;;;;;;;10.68;2.45;;;7.00;71.00;;;;;;4998003;28;20042;-77
2021/03/22 12:27:51;;;;;;;11.27;2.63;;;6.90;71.50;;;;;;4989917;28;20651;-78
2021/03/22 12:30:18;;;;;;;20.42;3.63;;;6.80;71.30;;;;;;4992712;28;20518;-77
2021/03/22 12:32:44;;;;;;;10.65;3.28;;;6.90;72.00;;;;;;4998322;28;20141;-78
2021/03/22 12:35:18;;;;;;;10.20;2.83;;;7.00;72.50;;;;;;4998638;28;20154;-80
2021/03/22 12:37:44;;;;;;;12.07;2.05;;;7.00;71.70;;;;;;4994640;28;20363;-77
2021/03/22 12:40:11;;;;;;;16.40;3.17;;;6.90;72.10;;;;;;4994848;28;20042;-77
2021/03/22 12:42:39;;;;;;;4.75;2.05;;;6.90;71.60;;;;;;4992906;28;20046;-79
2021/03/22 12:45:06;;;;;;;12.80;2.88;;;6.90;71.50;;;;;;4994891;28;20038;-82
2021/03/22 12:47:33;;;;;;;14.00;2.70;;;6.70;70.90;;;;;;5001656;28;20100;-77
2021/03/22 12:50:00;;;;;;;13.55;2.78;;;6.80;71.90;;;;;;5015867;28;20696;-78
2021/03/22 12:52:26;;;;;;;14.10;2.70;;;6.70;72.10;;;;;;4997289;28;20049;-77
2021/03/22 12:54:52;;;;;;;15.88;2.83;;;6.60;73.10;;;;;;4996300;28;20041;-77
2021/03/22 12:57:27;;;;;;;17.38;2.50;;;6.50;73.00;;;;;;4992465;28;20122;-77
2021/03/22 12:59:55;;;;;;;;;;;6.50;72.90;;;;;;4998376;28;20097;-77
2021/03/22 13:02:26;;;;;;;12.35;2.22;;;6.70;73.10;;;;;;4999736;28;19925;-79
2021/03/22 13:04:52;;;;;;;21.13;2.67;;;6.50;72.90;;;;;;4996909;28;20039;-79
2021/03/22 13:07:18;;;;;;;13.55;3.33;;;6.40;72.70;;;;;;4993364;28;20038;-77
2021/03/22 13:09:45;;;;;;;13.35;3.25;;;6.40;72.50;;;;;;4994300;28;20483;-80
2021/03/22 13:12:28;;;;;;;14.88;3.00;;;6.40;72.40;;;;;;4993088;28;20107;-77
2021/03/22 13:14:56;;;;;;;14.48;3.13;;;6.40;72.60;;;;;;4989334;28;20128;-78
2021/03/22 13:17:31;;;;;;;11.57;2.90;;;6.60;73.10;;;;;;4994006;28;20314;-78
2021/03/22 13:19:56;;;;;;;14.10;2.95;;;6.50;71.90;;;;;;4999340;28;20595;-81